Lær å fly hos oss!

Oslo Flyveklubb har i mange år utdannet flygere til privatflygersetifikat PPL(A). Skolen har godkjenning for å drive utdanning til teoriundervisning til PPL(A), privatflygersertifikat PPL (A) og mørkeflyging.

Gi bort en flytur i gave

På en introduksjonstur vil kandidaten være med på forberedelser til, og gjennomføring av en flytur på en times varighet med en av våre instruktører.

Hvor vi holder til?

Flyplassen ligger i Lillestrøm 10 minutter med tog fra Oslo. Følg storgata fra Lillestrøms sentrum så vill man se plassen på venstre side.
5 days ago
Photos from Oslo Flyklubb's post

Her kommer et kort reisebrev fra oss som er på tur med LN-FTM. I lørdags dro vi av gårde og landet på Malmø Sturup etter 2:20. Fint flyvær hele veien men spurte om en ILS35 approach for å ... See more

LIKE
LOVE
HAHA
WOW
SAD
ANGRY
Metar/TAF Gardermoen:

ENGM 232350Z 03004KT 9999 FEW035 BKN044 16/11 Q1015

TAF ENGM 231700Z 2318/2418 08005KT 9999 FEW040TCU SCT070 PROB30 TEMPO 2319/2409 SHRA SCT030CB BKN040